RYR8522 EPPO-EKCH
Flight info
| Callsign | RYR8522 |
|---|---|
| Flight time | 0h 51m |
| Altitude | 36000 |
| Route | XERBI2H XERBI L996 ROBOV DCT POKEN DCT ELVIX L975 TIDVU TIDVU3C |
| Aircraft | B38M/M-SDE1FGHILORVWXY/HB1 |
Departure
| Time | 2026-05-09 11:14 |
|---|---|
| Airport | Poznań-Ławica Airport (EPPO) |
Arrival
| Time | 2026-05-09 12:05 |
|---|---|
| Airport | Copenhagen Kastrup Airport (EKCH) |
| Time | Latitude | Longitude | Altitude | Speed | Heading |
|---|---|---|---|---|---|
| 2026-05-09 10:48 | 52.41585 | 16.82818 | 294 ft | 0 kts | 192° |
| 2026-05-09 10:50 | 52.41584 | 16.82911 | 291 ft | 0 kts | 193° |
| 2026-05-09 10:55 | 52.41585 | 16.82911 | 291 ft | 0 kts | 193° |
| 2026-05-09 11:03 | 52.41606 | 16.82919 | 293 ft | 4 kts | 196° |
| 2026-05-09 11:03 | 52.41631 | 16.82935 | 293 ft | 4 kts | 211° |
| 2026-05-09 11:04 | 52.41647 | 16.82962 | 293 ft | 4 kts | 262° |
| 2026-05-09 11:04 | 52.41647 | 16.82975 | 293 ft | 0 kts | 282° |
| 2026-05-09 11:06 | 52.41649 | 16.82966 | 293 ft | 2 kts | 282° |
| 2026-05-09 11:06 | 52.41654 | 16.82927 | 292 ft | 5 kts | 283° |
| 2026-05-09 11:07 | 52.41684 | 16.82856 | 291 ft | 11 kts | 334° |
| 2026-05-09 11:07 | 52.41765 | 16.82874 | 291 ft | 13 kts | 18° |
| 2026-05-09 11:07 | 52.41832 | 16.82908 | 290 ft | 10 kts | 14° |
| 2026-05-09 11:07 | 52.41895 | 16.82823 | 293 ft | 17 kts | 291° |
| 2026-05-09 11:08 | 52.41942 | 16.82577 | 291 ft | 27 kts | 287° |
| 2026-05-09 11:08 | 52.42003 | 16.82261 | 295 ft | 30 kts | 288° |
| 2026-05-09 11:08 | 52.42069 | 16.81920 | 292 ft | 32 kts | 288° |
| 2026-05-09 11:08 | 52.42139 | 16.81558 | 291 ft | 34 kts | 288° |
| 2026-05-09 11:09 | 52.42213 | 16.81176 | 292 ft | 36 kts | 287° |
| 2026-05-09 11:09 | 52.42282 | 16.80813 | 292 ft | 32 kts | 288° |
| 2026-05-09 11:09 | 52.42324 | 16.80606 | 294 ft | 14 kts | 295° |
| 2026-05-09 11:09 | 52.42398 | 16.80568 | 292 ft | 13 kts | 19° |
| 2026-05-09 11:10 | 52.42459 | 16.80603 | 290 ft | 6 kts | 22° |
| 2026-05-09 11:10 | 52.42472 | 16.80617 | 292 ft | 0 kts | 42° |
| 2026-05-09 11:10 | 52.42473 | 16.80618 | 292 ft | 1 kts | 45° |
| 2026-05-09 11:10 | 52.42480 | 16.80648 | 291 ft | 4 kts | 78° |
| 2026-05-09 11:11 | 52.42478 | 16.80695 | 291 ft | 5 kts | 104° |
| 2026-05-09 11:11 | 52.42476 | 16.80701 | 294 ft | 0 kts | 108° |
| 2026-05-09 11:13 | 52.42476 | 16.80704 | 294 ft | 2 kts | 108° |
| 2026-05-09 11:13 | 52.42432 | 16.80924 | 292 ft | 55 kts | 107° |
| 2026-05-09 11:13 | 52.42236 | 16.81939 | 293 ft | 129 kts | 107° |
| 2026-05-09 11:13 | 52.41905 | 16.83668 | 468 ft | 173 kts | 107° |
| 2026-05-09 11:14 | 52.41554 | 16.85539 | 1453 ft | 176 kts | 103° |
| 2026-05-09 11:14 | 52.41325 | 16.87508 | 2453 ft | 175 kts | 99° |
| 2026-05-09 11:14 | 52.41011 | 16.89592 | 2942 ft | 202 kts | 105° |
| 2026-05-09 11:14 | 52.40572 | 16.91951 | 3471 ft | 226 kts | 106° |
| 2026-05-09 11:15 | 52.40094 | 16.94377 | 4556 ft | 223 kts | 106° |
| 2026-05-09 11:15 | 52.39606 | 16.96798 | 5527 ft | 226 kts | 107° |
| 2026-05-09 11:15 | 52.39090 | 16.99251 | 6435 ft | 233 kts | 111° |
| 2026-05-09 11:15 | 52.38025 | 17.01372 | 6975 ft | 257 kts | 147° |
| 2026-05-09 11:16 | 52.36274 | 17.02286 | 7514 ft | 277 kts | 175° |
| 2026-05-09 11:16 | 52.34356 | 17.01730 | 8311 ft | 284 kts | 206° |
| 2026-05-09 11:16 | 52.32812 | 16.99716 | 9185 ft | 287 kts | 229° |
| 2026-05-09 11:16 | 52.31380 | 16.97397 | 10048 ft | 293 kts | 226° |
| 2026-05-09 11:17 | 52.30213 | 16.94679 | 10712 ft | 300 kts | 250° |
| 2026-05-09 11:17 | 52.29849 | 16.91271 | 11140 ft | 313 kts | 276° |
| 2026-05-09 11:17 | 52.30350 | 16.87756 | 11711 ft | 324 kts | 289° |
| 2026-05-09 11:17 | 52.31031 | 16.84203 | 12480 ft | 329 kts | 288° |
| 2026-05-09 11:18 | 52.31716 | 16.80616 | 13410 ft | 332 kts | 288° |
| 2026-05-09 11:18 | 52.32176 | 16.78222 | 14006 ft | 334 kts | 288° |
| 2026-05-09 11:18 | 52.32873 | 16.74600 | 14826 ft | 337 kts | 288° |
| 2026-05-09 11:18 | 52.33582 | 16.70915 | 15660 ft | 340 kts | 288° |
| 2026-05-09 11:19 | 52.34295 | 16.67209 | 16482 ft | 344 kts | 288° |
| 2026-05-09 11:19 | 52.35017 | 16.63445 | 17291 ft | 347 kts | 288° |
| 2026-05-09 11:19 | 52.35741 | 16.59665 | 18076 ft | 351 kts | 288° |
| 2026-05-09 11:19 | 52.36476 | 16.55827 | 18797 ft | 355 kts | 288° |
| 2026-05-09 11:20 | 52.37216 | 16.51951 | 19454 ft | 359 kts | 288° |
| 2026-05-09 11:20 | 52.37962 | 16.48030 | 20139 ft | 362 kts | 288° |
| 2026-05-09 11:20 | 52.38711 | 16.44094 | 20801 ft | 365 kts | 288° |
| 2026-05-09 11:20 | 52.39461 | 16.40140 | 21456 ft | 368 kts | 288° |
| 2026-05-09 11:21 | 52.40513 | 16.36325 | 22097 ft | 370 kts | 304° |
| 2026-05-09 11:21 | 52.42257 | 16.33220 | 22729 ft | 374 kts | 317° |
| 2026-05-09 11:21 | 52.44194 | 16.30402 | 23315 ft | 378 kts | 317° |
| 2026-05-09 11:21 | 52.46202 | 16.27518 | 23918 ft | 381 kts | 317° |
| 2026-05-09 11:22 | 52.48195 | 16.24687 | 24420 ft | 384 kts | 318° |
| 2026-05-09 11:22 | 52.50224 | 16.21824 | 24922 ft | 387 kts | 318° |
| 2026-05-09 11:22 | 52.52283 | 16.18927 | 25430 ft | 390 kts | 318° |
| 2026-05-09 11:22 | 52.54353 | 16.16013 | 25894 ft | 393 kts | 319° |
| 2026-05-09 11:23 | 52.56435 | 16.13082 | 26398 ft | 395 kts | 319° |
| 2026-05-09 11:23 | 52.58517 | 16.10148 | 26881 ft | 398 kts | 319° |
| 2026-05-09 11:23 | 52.60624 | 16.07174 | 27342 ft | 401 kts | 319° |
| 2026-05-09 11:23 | 52.62744 | 16.04177 | 27805 ft | 403 kts | 319° |
| 2026-05-09 11:24 | 52.64854 | 16.01192 | 28249 ft | 406 kts | 319° |
| 2026-05-09 11:24 | 52.67001 | 15.98151 | 28692 ft | 409 kts | 320° |
| 2026-05-09 11:24 | 52.69171 | 15.95072 | 29112 ft | 412 kts | 320° |
| 2026-05-09 11:24 | 52.71363 | 15.92039 | 29531 ft | 415 kts | 324° |
| 2026-05-09 11:25 | 52.73912 | 15.89780 | 29963 ft | 416 kts | 336° |
| 2026-05-09 11:25 | 52.76545 | 15.87748 | 30317 ft | 420 kts | 334° |
| 2026-05-09 11:25 | 52.79187 | 15.85685 | 30648 ft | 422 kts | 334° |
| 2026-05-09 11:25 | 52.81852 | 15.83624 | 30975 ft | 425 kts | 335° |
| 2026-05-09 11:26 | 52.84540 | 15.81553 | 31295 ft | 427 kts | 335° |
| 2026-05-09 11:26 | 52.87027 | 15.79638 | 31728 ft | 426 kts | 335° |
| 2026-05-09 11:26 | 52.89720 | 15.77561 | 32054 ft | 429 kts | 335° |
| 2026-05-09 11:26 | 52.92434 | 15.75467 | 32348 ft | 431 kts | 335° |
| 2026-05-09 11:27 | 52.95155 | 15.73363 | 32739 ft | 432 kts | 335° |
| 2026-05-09 11:27 | 52.97885 | 15.71250 | 33147 ft | 432 kts | 335° |
| 2026-05-09 11:27 | 53.00605 | 15.69142 | 33551 ft | 432 kts | 335° |
| 2026-05-09 11:27 | 53.03330 | 15.67047 | 33972 ft | 432 kts | 336° |
| 2026-05-09 11:28 | 53.06068 | 15.64985 | 34372 ft | 432 kts | 336° |
| 2026-05-09 11:28 | 53.08818 | 15.62904 | 34691 ft | 432 kts | 335° |
| 2026-05-09 11:28 | 53.11549 | 15.60833 | 34984 ft | 433 kts | 335° |
| 2026-05-09 11:28 | 53.14291 | 15.58751 | 35284 ft | 434 kts | 335° |
| 2026-05-09 11:29 | 53.17045 | 15.56657 | 35575 ft | 435 kts | 335° |
| 2026-05-09 11:29 | 53.19814 | 15.54548 | 35866 ft | 436 kts | 335° |
| 2026-05-09 11:29 | 53.22505 | 15.52496 | 36130 ft | 438 kts | 335° |
| 2026-05-09 11:30 | 53.28035 | 15.48271 | 36213 ft | 433 kts | 335° |
| 2026-05-09 11:30 | 53.33508 | 15.44090 | 36207 ft | 432 kts | 335° |
| 2026-05-09 11:31 | 53.38971 | 15.39905 | 36210 ft | 432 kts | 335° |
| 2026-05-09 11:31 | 53.44442 | 15.35689 | 36213 ft | 432 kts | 335° |
| 2026-05-09 11:32 | 53.50091 | 15.32472 | 36217 ft | 430 kts | 349° |
| 2026-05-09 11:32 | 53.55973 | 15.30376 | 36202 ft | 432 kts | 348° |
| 2026-05-09 11:33 | 53.61810 | 15.28319 | 36215 ft | 432 kts | 348° |
| 2026-05-09 11:33 | 53.70630 | 15.25256 | 36213 ft | 432 kts | 348° |
| 2026-05-09 11:34 | 53.76523 | 15.23170 | 36207 ft | 431 kts | 347° |
| 2026-05-09 11:34 | 53.82417 | 15.21187 | 36195 ft | 432 kts | 347° |
| 2026-05-09 11:35 | 53.88312 | 15.19069 | 36219 ft | 432 kts | 348° |
| 2026-05-09 11:35 | 53.94149 | 15.17006 | 36219 ft | 432 kts | 348° |
| 2026-05-09 11:36 | 54.00046 | 15.14921 | 36226 ft | 432 kts | 348° |
| 2026-05-09 11:36 | 54.05945 | 15.12829 | 36237 ft | 432 kts | 348° |
| 2026-05-09 11:37 | 54.11853 | 15.10729 | 36225 ft | 433 kts | 348° |
| 2026-05-09 11:37 | 54.17749 | 15.08626 | 36239 ft | 433 kts | 348° |
| 2026-05-09 11:38 | 54.23634 | 15.06522 | 36243 ft | 433 kts | 348° |
| 2026-05-09 11:38 | 54.26535 | 15.05188 | 36227 ft | 432 kts | 336° |
| 2026-05-09 11:38 | 54.29212 | 15.02878 | 36252 ft | 431 kts | 334° |
| 2026-05-09 11:39 | 54.34543 | 14.98340 | 36256 ft | 427 kts | 334° |
| 2026-05-09 11:40 | 54.42437 | 14.91459 | 35409 ft | 426 kts | 334° |
| 2026-05-09 11:40 | 54.45066 | 14.89153 | 34579 ft | 419 kts | 335° |
| 2026-05-09 11:40 | 54.47630 | 14.86900 | 33798 ft | 409 kts | 335° |
| 2026-05-09 11:40 | 54.50131 | 14.84698 | 33141 ft | 397 kts | 335° |
| 2026-05-09 11:41 | 54.52541 | 14.82575 | 32658 ft | 386 kts | 335° |
| 2026-05-09 11:41 | 54.54969 | 14.80433 | 32187 ft | 397 kts | 335° |
| 2026-05-09 11:41 | 54.57452 | 14.78240 | 31632 ft | 401 kts | 335° |
| 2026-05-09 11:41 | 54.59937 | 14.76042 | 31085 ft | 400 kts | 335° |
| 2026-05-09 11:42 | 54.62416 | 14.73846 | 30541 ft | 398 kts | 335° |
| 2026-05-09 11:42 | 54.64850 | 14.71686 | 29946 ft | 394 kts | 335° |
| 2026-05-09 11:42 | 54.67281 | 14.69527 | 29341 ft | 390 kts | 334° |
| 2026-05-09 11:42 | 54.69680 | 14.67393 | 28837 ft | 385 kts | 334° |
| 2026-05-09 11:43 | 54.72052 | 14.65281 | 28331 ft | 381 kts | 334° |
| 2026-05-09 11:43 | 54.74403 | 14.63184 | 27819 ft | 378 kts | 334° |
| 2026-05-09 11:43 | 54.76731 | 14.61106 | 27315 ft | 375 kts | 334° |
| 2026-05-09 11:43 | 54.79036 | 14.59045 | 26815 ft | 372 kts | 334° |
| 2026-05-09 11:44 | 54.81335 | 14.56993 | 26317 ft | 370 kts | 335° |
| 2026-05-09 11:44 | 54.83684 | 14.55162 | 25754 ft | 370 kts | 337° |
| 2026-05-09 11:44 | 54.86018 | 14.53358 | 25309 ft | 367 kts | 336° |
| 2026-05-09 11:44 | 54.88341 | 14.51544 | 24864 ft | 365 kts | 336° |
| 2026-05-09 11:45 | 54.90657 | 14.49726 | 24389 ft | 364 kts | 336° |
| 2026-05-09 11:45 | 54.92963 | 14.47911 | 23916 ft | 364 kts | 336° |
| 2026-05-09 11:45 | 54.95272 | 14.46093 | 23366 ft | 365 kts | 336° |
| 2026-05-09 11:45 | 54.97591 | 14.44263 | 22848 ft | 368 kts | 336° |
| 2026-05-09 11:46 | 54.99917 | 14.42424 | 22374 ft | 369 kts | 336° |
| 2026-05-09 11:46 | 55.02253 | 14.40576 | 21904 ft | 367 kts | 336° |
| 2026-05-09 11:46 | 55.04557 | 14.38751 | 21473 ft | 366 kts | 336° |
| 2026-05-09 11:46 | 55.06866 | 14.36919 | 21004 ft | 364 kts | 336° |
| 2026-05-09 11:47 | 55.09156 | 14.35099 | 20566 ft | 361 kts | 336° |
| 2026-05-09 11:47 | 55.11441 | 14.33282 | 20130 ft | 359 kts | 336° |
| 2026-05-09 11:47 | 55.13707 | 14.31478 | 19704 ft | 357 kts | 336° |
| 2026-05-09 11:47 | 55.15961 | 14.29680 | 19287 ft | 354 kts | 336° |
| 2026-05-09 11:48 | 55.18199 | 14.27894 | 18868 ft | 352 kts | 336° |
| 2026-05-09 11:48 | 55.20402 | 14.26133 | 18438 ft | 350 kts | 336° |
| 2026-05-09 11:48 | 55.22613 | 14.24363 | 17983 ft | 348 kts | 335° |
| 2026-05-09 11:48 | 55.24778 | 14.22629 | 17577 ft | 345 kts | 336° |
| 2026-05-09 11:49 | 55.26959 | 14.20879 | 17183 ft | 341 kts | 335° |
| 2026-05-09 11:49 | 55.29107 | 14.19153 | 16803 ft | 338 kts | 335° |
| 2026-05-09 11:49 | 55.31238 | 14.17441 | 16404 ft | 335 kts | 335° |
| 2026-05-09 11:49 | 55.33329 | 14.15757 | 16040 ft | 331 kts | 335° |
| 2026-05-09 11:50 | 55.35416 | 14.14075 | 15670 ft | 328 kts | 335° |
| 2026-05-09 11:50 | 55.37485 | 14.12383 | 15289 ft | 327 kts | 332° |
| 2026-05-09 11:50 | 55.39285 | 14.09931 | 14840 ft | 331 kts | 311° |
| 2026-05-09 11:50 | 55.40481 | 14.06440 | 14443 ft | 335 kts | 291° |
| 2026-05-09 11:51 | 55.40964 | 14.02441 | 14114 ft | 336 kts | 274° |
| 2026-05-09 11:51 | 55.41076 | 13.98345 | 13731 ft | 337 kts | 272° |
| 2026-05-09 11:51 | 55.41136 | 13.94285 | 13316 ft | 336 kts | 271° |
| 2026-05-09 11:51 | 55.41168 | 13.90142 | 12919 ft | 332 kts | 270° |
| 2026-05-09 11:52 | 55.41184 | 13.86098 | 12543 ft | 329 kts | 270° |
| 2026-05-09 11:52 | 55.41189 | 13.82141 | 12182 ft | 325 kts | 270° |
| 2026-05-09 11:52 | 55.41195 | 13.78183 | 11821 ft | 322 kts | 271° |
| 2026-05-09 11:52 | 55.41663 | 13.74388 | 11401 ft | 318 kts | 295° |
| 2026-05-09 11:53 | 55.42866 | 13.71222 | 11006 ft | 306 kts | 310° |
| 2026-05-09 11:53 | 55.44179 | 13.68355 | 10645 ft | 295 kts | 308° |
| 2026-05-09 11:53 | 55.45435 | 13.65527 | 10144 ft | 292 kts | 307° |
| 2026-05-09 11:53 | 55.46670 | 13.62715 | 9566 ft | 289 kts | 307° |
| 2026-05-09 11:54 | 55.47884 | 13.59927 | 9097 ft | 284 kts | 307° |
| 2026-05-09 11:54 | 55.49088 | 13.57150 | 8769 ft | 286 kts | 307° |
| 2026-05-09 11:54 | 55.50296 | 13.54347 | 8530 ft | 287 kts | 307° |
| 2026-05-09 11:54 | 55.51499 | 13.51552 | 8265 ft | 287 kts | 306° |
| 2026-05-09 11:55 | 55.52707 | 13.48743 | 7964 ft | 287 kts | 306° |
| 2026-05-09 11:56 | 55.58281 | 13.35739 | 6605 ft | 282 kts | 307° |
| 2026-05-09 11:56 | 55.59468 | 13.32957 | 6276 ft | 281 kts | 307° |
| 2026-05-09 11:56 | 55.60636 | 13.30219 | 5986 ft | 279 kts | 307° |
| 2026-05-09 11:57 | 55.61805 | 13.27475 | 5681 ft | 277 kts | 307° |
| 2026-05-09 11:57 | 55.62957 | 13.24768 | 5406 ft | 274 kts | 307° |
| 2026-05-09 11:57 | 55.64105 | 13.22070 | 5139 ft | 273 kts | 306° |
| 2026-05-09 11:57 | 55.65242 | 13.19394 | 4997 ft | 273 kts | 307° |
| 2026-05-09 11:58 | 55.66376 | 13.16720 | 4997 ft | 274 kts | 307° |
| 2026-05-09 11:58 | 55.67520 | 13.14019 | 4862 ft | 273 kts | 307° |
| 2026-05-09 11:58 | 55.68656 | 13.11336 | 4712 ft | 268 kts | 306° |
| 2026-05-09 11:58 | 55.69763 | 13.08724 | 4631 ft | 260 kts | 307° |
| 2026-05-09 11:59 | 55.70703 | 13.06058 | 4483 ft | 253 kts | 292° |
| 2026-05-09 11:59 | 55.71246 | 13.03165 | 4427 ft | 244 kts | 285° |
| 2026-05-09 11:59 | 55.71710 | 13.00355 | 4278 ft | 232 kts | 285° |
| 2026-05-09 11:59 | 55.72158 | 12.97641 | 4023 ft | 228 kts | 285° |
| 2026-05-09 12:00 | 55.72613 | 12.94958 | 3885 ft | 226 kts | 285° |
| 2026-05-09 12:00 | 55.73057 | 12.92284 | 3796 ft | 225 kts | 285° |
| 2026-05-09 12:00 | 55.73502 | 12.89622 | 3745 ft | 226 kts | 285° |
| 2026-05-09 12:00 | 55.73915 | 12.86936 | 3565 ft | 225 kts | 278° |
| 2026-05-09 12:01 | 55.73785 | 12.84208 | 3151 ft | 222 kts | 248° |
| 2026-05-09 12:01 | 55.72934 | 12.82015 | 2794 ft | 215 kts | 217° |
| 2026-05-09 12:01 | 55.71700 | 12.80703 | 2521 ft | 204 kts | 208° |
| 2026-05-09 12:01 | 55.70570 | 12.79283 | 2210 ft | 196 kts | 218° |
| 2026-05-09 12:02 | 55.69576 | 12.77702 | 1918 ft | 188 kts | 220° |
| 2026-05-09 12:02 | 55.68620 | 12.76192 | 1666 ft | 180 kts | 219° |
| 2026-05-09 12:02 | 55.67701 | 12.74760 | 1410 ft | 172 kts | 218° |
| 2026-05-09 12:02 | 55.66830 | 12.73413 | 1173 ft | 160 kts | 219° |
| 2026-05-09 12:03 | 55.66021 | 12.72154 | 984 ft | 148 kts | 220° |
| 2026-05-09 12:03 | 55.65261 | 12.70977 | 833 ft | 142 kts | 219° |
| 2026-05-09 12:03 | 55.64559 | 12.69859 | 638 ft | 136 kts | 220° |
| 2026-05-09 12:03 | 55.63845 | 12.68769 | 403 ft | 135 kts | 220° |
| 2026-05-09 12:04 | 55.63145 | 12.67687 | 219 ft | 131 kts | 221° |
| 2026-05-09 12:04 | 55.62465 | 12.66640 | 57 ft | 129 kts | 220° |
| 2026-05-09 12:04 | 55.61853 | 12.65692 | 28 ft | 96 kts | 221° |
| 2026-05-09 12:04 | 55.61492 | 12.65129 | 26 ft | 55 kts | 221° |
| 2026-05-09 12:05 | 55.61306 | 12.64793 | 27 ft | 34 kts | 238° |
| 2026-05-09 12:05 | 55.61224 | 12.64446 | 29 ft | 21 kts | 251° |
| 2026-05-09 12:05 | 55.61190 | 12.64208 | 27 ft | 20 kts | 279° |
| 2026-05-09 12:05 | 55.61303 | 12.64136 | 26 ft | 22 kts | 29° |
| 2026-05-09 12:06 | 55.61437 | 12.64291 | 30 ft | 24 kts | 33° |
| 2026-05-09 12:06 | 55.61586 | 12.64461 | 26 ft | 27 kts | 32° |
| 2026-05-09 12:06 | 55.61748 | 12.64649 | 28 ft | 28 kts | 32° |
| 2026-05-09 12:06 | 55.61876 | 12.64794 | 28 ft | 13 kts | 33° |
| 2026-05-09 12:07 | 55.61949 | 12.64878 | 27 ft | 14 kts | 33° |
| 2026-05-09 12:07 | 55.62039 | 12.64981 | 27 ft | 17 kts | 33° |
| 2026-05-09 12:07 | 55.62127 | 12.65085 | 27 ft | 15 kts | 33° |
| 2026-05-09 12:07 | 55.62207 | 12.65176 | 26 ft | 9 kts | 30° |
| 2026-05-09 12:08 | 55.62281 | 12.65198 | 26 ft | 12 kts | 359° |
| 2026-05-09 12:08 | 55.62375 | 12.65203 | 26 ft | 11 kts | 358° |
| 2026-05-09 12:08 | 55.62436 | 12.65258 | 26 ft | 12 kts | 71° |
| 2026-05-09 12:08 | 55.62441 | 12.65422 | 26 ft | 15 kts | 89° |
| 2026-05-09 12:09 | 55.62444 | 12.65628 | 26 ft | 18 kts | 89° |
| 2026-05-09 12:09 | 55.62447 | 12.65737 | 26 ft | 4 kts | 77° |
| 2026-05-09 12:09 | 55.62470 | 12.65761 | 26 ft | 4 kts | 4° |
| 2026-05-09 12:10 | 55.62522 | 12.65759 | 26 ft | 0 kts | 358° |